Time;durP1;ratioP1;P1;durP2;ratioP2;P2;SDS_P1;SDS_P2;PMS_P1;PMS_P2;Temp;Humidity;BMP_temperature;BMP_pressure;BME280_temperature;BME280_humidity;BME280_pressure;Samples;Min_cycle;Max_cycle;Signal;HPM_P1;HPM_P2
2021/05/18 00:01:32;;;;;;;1.20;0.90;;;12.60;99.90;;;;;;5016021;28;20025;-76
2021/05/18 00:03:58;;;;;;;2.95;0.75;;;12.50;99.90;;;;;;5033649;28;20475;-75
2021/05/18 00:06:24;;;;;;;2.92;1.05;;;12.50;99.90;;;;;;5014505;28;20029;-74
2021/05/18 00:11:47;;;;;;;3.58;1.40;;;12.50;99.90;;;;;;5026541;28;20095;-74
2021/05/18 00:14:22;;;;;;;1.15;1.05;;;12.50;99.90;;;;;;5014105;28;20036;-74
2021/05/18 00:16:49;;;;;;;2.72;1.08;;;12.50;99.90;;;;;;5032877;28;20025;-73
2021/05/18 00:19:16;;;;;;;5.43;1.00;;;12.50;99.90;;;;;;5028309;28;20018;-74
2021/05/18 00:21:41;;;;;;;3.80;1.15;;;12.50;99.90;;;;;;5028678;28;20383;-73
2021/05/18 00:24:08;;;;;;;0.63;0.60;;;12.50;99.90;;;;;;5032043;28;20034;-73
2021/05/18 00:26:34;;;;;;;5.32;1.08;;;12.40;99.90;;;;;;5012657;28;20029;-74
2021/05/18 00:29:00;;;;;;;5.10;1.73;;;12.50;99.90;;;;;;5031151;28;20025;-74
2021/05/18 00:31:28;;;;;;;4.38;1.55;;;12.50;99.90;;;;;;5012224;28;20026;-73
2021/05/18 00:33:53;;;;;;;6.53;1.30;;;12.50;99.90;;;;;;5012455;28;20033;-74
2021/05/18 00:36:19;;;;;;;1.27;0.60;;;12.40;99.90;;;;;;5014602;28;20021;-73
2021/05/18 00:38:45;;;;;;;0.93;0.70;;;12.40;99.90;;;;;;5014039;28;20380;-74
2021/05/18 00:41:12;;;;;;;3.40;0.85;;;12.40;99.90;;;;;;5012714;28;20096;-74
2021/05/18 00:43:38;;;;;;;2.08;0.85;;;12.40;99.90;;;;;;5013706;28;20037;-73
2021/05/18 00:46:04;;;;;;;1.52;0.70;;;12.40;99.90;;;;;;5013239;28;20034;-73
2021/05/18 00:48:31;;;;;;;1.13;0.57;;;12.40;99.90;;;;;;5024218;28;20503;-74
2021/05/18 00:51:04;;;;;;;4.65;1.10;;;12.50;99.90;;;;;;5029885;28;20588;-74
2021/05/18 00:53:30;;;;;;;1.27;1.02;;;12.40;99.90;;;;;;5030790;28;20033;-74
2021/05/18 00:58:33;;;;;;;0.88;0.80;;;12.40;99.90;;;;;;5022656;28;20018;-75
2021/05/18 01:01:03;;;;;;;1.70;0.70;;;12.40;99.90;;;;;;5007645;28;20037;-75
2021/05/18 01:03:31;;;;;;;1.42;0.85;;;12.50;99.90;;;;;;5012296;28;20409;-74
2021/05/18 01:08:44;;;;;;;5.63;0.75;;;12.40;99.90;;;;;;5027131;28;20045;-74
2021/05/18 01:11:11;;;;;;;1.25;1.05;;;12.40;99.90;;;;;;5031583;28;20025;-75
2021/05/18 01:13:39;;;;;;;1.63;1.08;;;12.40;99.90;;;;;;5009932;28;20025;-75
2021/05/18 01:16:06;;;;;;;2.38;0.77;;;12.40;99.90;;;;;;5030817;28;20032;-74
2021/05/18 01:18:44;;;;;;;1.55;0.90;;;12.40;99.90;;;;;;5007775;28;20404;-74
2021/05/18 01:21:11;;;;;;;1.08;0.65;;;12.40;99.90;;;;;;5030544;28;20025;-74
2021/05/18 01:23:39;;;;;;;2.45;0.93;;;12.40;99.90;;;;;;5013956;28;20022;-74
2021/05/18 01:26:06;;;;;;;3.65;0.80;;;12.40;99.90;;;;;;5029185;28;20459;-75
2021/05/18 01:28:32;;;;;;;0.98;0.80;;;12.40;99.90;;;;;;5029555;28;20703;-74
2021/05/18 01:31:01;;;;;;;1.20;0.80;;;12.40;99.90;;;;;;5031291;28;20021;-75
2021/05/18 01:33:27;;;;;;;0.65;0.65;;;12.40;99.90;;;;;;5030043;28;20674;-74
2021/05/18 01:35:55;;;;;;;1.65;0.70;;;12.40;99.90;;;;;;5012774;28;20026;-75
2021/05/18 01:38:25;;;;;;;3.47;0.80;;;12.40;99.90;;;;;;5011973;28;20067;-74
2021/05/18 01:43:35;;;;;;;2.90;0.43;;;12.40;99.90;;;;;;5029932;28;20517;-74
2021/05/18 01:46:01;;;;;;;3.88;0.90;;;12.40;99.90;;;;;;5028358;28;20025;-74
2021/05/18 01:48:27;;;;;;;5.85;0.85;;;12.40;99.90;;;;;;5011643;28;20479;-74
2021/05/18 01:50:53;;;;;;;1.40;0.63;;;12.40;99.90;;;;;;5010923;28;20037;-73
2021/05/18 01:53:20;;;;;;;1.63;0.47;;;12.30;99.90;;;;;;5013106;28;20026;-75
2021/05/18 01:58:23;;;;;;;0.70;0.70;;;12.40;99.90;;;;;;5030537;28;20021;-74
2021/05/18 02:00:49;;;;;;;6.00;0.90;;;12.40;99.90;;;;;;5030268;28;20029;-74
2021/05/18 02:03:15;;;;;;;0.52;0.50;;;12.30;99.90;;;;;;5010804;28;20036;-74
2021/05/18 02:05:41;;;;;;;0.30;0.30;;;12.20;99.90;;;;;;5011129;28;20026;-74
2021/05/18 02:08:11;;;;;;;1.27;0.65;;;12.20;99.90;;;;;;5029439;28;20120;-74
2021/05/18 02:10:37;;;;;;;0.95;0.63;;;12.20;99.90;;;;;;5010951;28;20933;-74
2021/05/18 02:13:03;;;;;;;1.00;0.90;;;12.20;99.90;;;;;;5029072;28;20030;-75
2021/05/18 02:18:18;;;;;;;1.45;0.77;;;12.30;99.90;;;;;;5029617;28;20470;-75
2021/05/18 02:26:15;;;;;;;0.63;0.45;;;12.40;99.90;;;;;;5028490;28;20064;-74
2021/05/18 02:28:41;;;;;;;0.70;0.50;;;12.40;99.90;;;;;;5028189;28;20080;-74
2021/05/18 02:31:07;;;;;;;1.05;0.70;;;12.40;99.90;;;;;;5012474;28;20033;-74
2021/05/18 02:33:33;;;;;;;0.77;0.70;;;12.40;99.90;;;;;;5023820;28;20029;-76
2021/05/18 02:35:59;;;;;;;1.02;0.70;;;12.50;99.90;;;;;;5026545;28;20108;-75
2021/05/18 02:38:24;;;;;;;2.03;0.43;;;12.40;99.90;;;;;;5012747;28;20132;-74
2021/05/18 02:40:50;;;;;;;1.58;0.47;;;12.40;99.90;;;;;;5011873;28;20029;-73
2021/05/18 02:43:22;;;;;;;2.85;0.47;;;12.40;99.90;;;;;;5028447;28;20035;-74
2021/05/18 02:46:04;;;;;;;1.13;0.60;;;12.40;99.90;;;;;;5011215;28;20040;-74
2021/05/18 02:51:14;;;;;;;4.30;0.50;;;12.40;99.90;;;;;;5028575;28;20130;-73
2021/05/18 02:53:40;;;;;;;1.55;0.60;;;12.50;99.90;;;;;;5012446;28;20053;-73
2021/05/18 02:58:55;;;;;;;1.08;0.80;;;12.50;99.90;;;;;;5028645;28;20057;-73
2021/05/18 03:01:20;;;;;;;3.50;0.55;;;12.50;99.90;;;;;;5018588;28;20072;-73
2021/05/18 03:03:46;;;;;;;4.57;0.70;;;12.40;99.90;;;;;;5009267;28;20697;-73
2021/05/18 03:06:12;;;;;;;3.20;0.93;;;12.40;99.90;;;;;;5011326;28;20061;-73
2021/05/18 03:08:39;;;;;;;0.82;0.52;;;12.40;99.90;;;;;;5012632;28;20132;-74
2021/05/18 03:11:08;;;;;;;2.70;0.80;;;12.40;99.90;;;;;;5011272;28;20034;-74
2021/05/18 03:13:34;;;;;;;3.13;1.77;;;12.40;99.90;;;;;;5012184;28;20021;-73
2021/05/18 03:16:00;;;;;;;4.25;1.02;;;12.40;99.90;;;;;;5010757;28;20021;-73
2021/05/18 03:18:26;;;;;;;2.03;0.77;;;12.40;99.90;;;;;;5029988;28;20076;-74
2021/05/18 03:20:51;;;;;;;1.23;0.90;;;12.40;99.90;;;;;;5029485;28;20021;-73
2021/05/18 03:23:17;;;;;;;1.33;0.82;;;12.30;99.90;;;;;;5012288;28;20034;-73
2021/05/18 03:25:43;;;;;;;3.13;0.77;;;12.30;99.90;;;;;;5028627;28;20034;-73
2021/05/18 03:28:08;;;;;;;1.40;0.70;;;12.30;99.90;;;;;;5012522;28;20582;-74
2021/05/18 03:35:50;;;;;;;5.10;0.90;;;12.20;99.90;;;;;;5029344;28;19996;-74
2021/05/18 03:40:49;;;;;;;3.53;0.60;;;12.20;99.90;;;;;;5026812;28;20163;-74
2021/05/18 03:48:57;;;;;;;1.23;0.73;;;12.10;99.90;;;;;;4997042;28;20499;-73
2021/05/18 03:54:22;;;;;;;0.98;0.95;;;12.10;99.90;;;;;;5029110;28;20530;-76
2021/05/18 04:05:09;;;;;;;2.58;0.90;;;12.10;99.90;;;;;;5033165;28;20083;-73
2021/05/18 04:12:53;;;;;;;0.82;0.77;;;12.10;99.90;;;;;;5032151;28;20040;-74
2021/05/18 04:18:16;;;;;;;4.03;0.75;;;12.20;99.90;;;;;;5033746;28;20152;-74
2021/05/18 04:20:53;;;;;;;3.92;1.05;;;12.20;99.90;;;;;;5008041;28;20033;-74
2021/05/18 05:16:27;;;;;;;1.33;0.63;;;13.90;99.90;;;;;;5026352;28;20095;-71
2021/05/18 05:18:53;;;;;;;7.07;1.13;;;14.10;99.90;;;;;;5013695;28;20030;-73
2021/05/18 05:21:21;;;;;;;3.50;0.85;;;14.20;99.90;;;;;;5010481;28;20036;-71
2021/05/18 05:23:48;;;;;;;5.35;1.02;;;14.30;99.90;;;;;;5031657;28;20112;-72
2021/05/18 05:26:14;;;;;;;0.85;0.85;;;14.40;99.90;;;;;;5031558;28;20546;-72
2021/05/18 05:28:40;;;;;;;5.07;0.98;;;14.40;99.90;;;;;;5026242;28;20028;-72
2021/05/18 05:31:06;;;;;;;2.00;0.75;;;14.50;99.90;;;;;;5028098;28;20037;-72
2021/05/18 05:33:31;;;;;;;2.63;0.98;;;14.50;99.90;;;;;;5028644;28;20486;-73
2021/05/18 05:35:57;;;;;;;1.70;0.63;;;14.60;99.90;;;;;;5030509;28;20048;-72
2021/05/18 05:38:24;;;;;;;1.40;0.50;;;14.70;99.90;;;;;;5031064;28;20021;-71
2021/05/18 05:40:50;;;;;;;0.68;0.60;;;14.80;99.90;;;;;;5012872;28;20025;-71
2021/05/18 05:43:16;;;;;;;0.85;0.80;;;14.90;99.90;;;;;;5028257;28;20034;-72
2021/05/18 05:45:42;;;;;;;2.80;0.70;;;14.90;99.90;;;;;;5028449;28;20047;-72
2021/05/18 05:48:08;;;;;;;3.60;0.93;;;15.00;99.90;;;;;;5013698;28;20017;-72
2021/05/18 05:50:34;;;;;;;1.40;0.60;;;15.10;99.90;;;;;;5013804;28;20037;-72
2021/05/18 05:53:00;;;;;;;4.15;1.20;;;15.20;99.90;;;;;;5024747;28;20549;-72
2021/05/18 05:55:25;;;;;;;6.70;0.93;;;15.30;99.90;;;;;;5012925;28;20030;-71
2021/05/18 05:57:52;;;;;;;2.97;1.42;;;15.40;99.90;;;;;;5013029;28;20049;-69
2021/05/18 06:00:19;;;;;;;1.75;0.95;;;15.60;99.90;;;;;;5013724;28;20031;-72
2021/05/18 06:02:45;;;;;;;3.00;0.90;;;15.70;99.90;;;;;;5012817;28;20079;-72
2021/05/18 06:05:10;;;;;;;2.65;0.75;;;15.80;99.90;;;;;;5032185;28;20030;-72
2021/05/18 06:07:36;;;;;;;2.22;0.93;;;15.80;99.90;;;;;;5032002;28;20025;-71
2021/05/18 06:10:29;;;;;;;2.67;0.82;;;15.90;99.90;;;;;;5030697;28;20118;-72
2021/05/18 06:13:17;;;;;;;1.90;0.80;;;16.00;99.90;;;;;;5027631;28;20033;-71
2021/05/18 06:43:19;;;;;;;5.28;1.88;;;17.20;99.90;;;;;;5028242;28;20072;-71
2021/05/18 06:48:29;;;;;;;15.30;2.45;;;17.40;99.90;;;;;;5026795;28;20043;-70
2021/05/18 06:50:55;;;;;;;3.65;1.23;;;17.50;99.90;;;;;;5000078;28;20026;-70
2021/05/18 06:53:21;;;;;;;4.85;1.00;;;17.60;99.90;;;;;;5007204;28;20115;-72
2021/05/18 06:55:49;;;;;;;6.63;1.92;;;17.60;99.90;;;;;;5021437;28;20121;-72
2021/05/18 06:58:19;;;;;;;1.50;0.98;;;17.70;99.90;;;;;;5000137;28;20040;-72
2021/05/18 07:00:46;;;;;;;7.50;1.40;;;17.80;99.90;;;;;;5022907;28;20368;-71
2021/05/18 07:03:19;;;;;;;4.05;0.60;;;17.80;99.90;;;;;;5007455;28;20091;-73
2021/05/18 07:06:02;;;;;;;1.27;0.40;;;17.90;99.90;;;;;;5012610;28;20344;-73
2021/05/18 07:10:54;;;;;;;8.73;1.30;;;18.00;99.90;;;;;;5019213;28;20065;-70
2021/05/18 07:13:20;;;;;;;1.52;0.82;;;18.10;99.90;;;;;;5022640;28;20180;-70
2021/05/18 07:15:46;;;;;;;7.85;0.80;;;17.90;99.90;;;;;;4999329;28;20026;-70
2021/05/18 07:18:12;;;;;;;3.60;0.50;;;18.10;99.90;;;;;;5020270;28;20490;-71
2021/05/18 07:20:37;;;;;;;2.72;1.00;;;18.00;99.90;;;;;;5010504;28;20103;-71
2021/05/18 07:23:13;;;;;;;1.35;1.08;;;18.00;99.90;;;;;;5009303;28;20034;-73
2021/05/18 07:25:38;;;;;;;0.40;0.30;;;18.00;99.90;;;;;;5029838;28;20439;-71
2021/05/18 07:28:08;;;;;;;1.35;0.77;;;17.90;99.90;;;;;;5028750;28;20033;-71
2021/05/18 07:30:36;;;;;;;0.52;0.30;;;17.90;99.90;;;;;;5028664;28;20022;-72
2021/05/18 07:33:02;;;;;;;2.38;0.60;;;17.80;99.90;;;;;;5030139;28;20037;-73
2021/05/18 07:35:28;;;;;;;0.60;0.52;;;17.90;99.90;;;;;;5032796;28;20013;-72
2021/05/18 07:37:54;;;;;;;5.47;0.65;;;17.90;99.90;;;;;;5013550;28;20100;-73
2021/05/18 07:40:20;;;;;;;5.70;0.65;;;17.90;99.90;;;;;;5014555;28;20427;-74
2021/05/18 07:42:51;;;;;;;1.80;0.80;;;17.90;99.90;;;;;;5027859;28;20043;-71
2021/05/18 07:45:27;;;;;;;1.20;0.98;;;18.00;99.90;;;;;;5031188;28;20029;-71
2021/05/18 07:48:04;;;;;;;0.98;0.57;;;18.00;99.90;;;;;;5033770;28;20403;-72
2021/05/18 08:07:22;;;;;;;2.08;1.02;;;18.20;99.90;;;;;;4981340;28;20031;-71
2021/05/18 08:09:53;;;;;;;2.97;1.17;;;18.20;99.90;;;;;;4972663;28;20551;-71
2021/05/18 08:12:19;;;;;;;1.98;0.95;;;18.20;99.90;;;;;;4993189;28;20065;-71
2021/05/18 08:14:49;;;;;;;1.85;1.10;;;18.20;99.90;;;;;;5012212;28;20454;-71
2021/05/18 08:17:22;;;;;;;1.58;0.70;;;18.30;99.90;;;;;;5032533;28;20084;-72
2021/05/18 09:41:55;;;;;;;3.90;1.35;;;19.40;99.90;;;;;;5031598;28;20027;-72
2021/05/18 10:35:33;;;;;;;10.05;2.83;;;18.40;99.90;;;;;;5033734;28;20022;-72
2021/05/18 10:38:02;;;;;;;14.20;3.78;;;18.50;99.90;;;;;;5030729;28;20056;-71
2021/05/18 10:40:34;;;;;;;10.75;2.88;;;18.50;99.90;;;;;;5030269;28;20117;-71
2021/05/18 10:43:26;;;;;;;10.05;3.20;;;18.50;99.90;;;;;;5012698;28;20136;-71
2021/05/18 10:45:53;;;;;;;16.85;3.22;;;18.40;99.90;;;;;;5021178;28;20505;-73
2021/05/18 10:48:34;;;;;;;24.33;4.55;;;18.40;99.90;;;;;;5031718;28;20040;-73
2021/05/18 10:51:30;;;;;;;11.23;3.00;;;18.50;99.90;;;;;;5031287;28;20048;-71
2021/05/18 10:54:11;;;;;;;14.15;4.00;;;18.70;99.90;;;;;;5031298;28;20026;-72
2021/05/18 10:56:59;;;;;;;16.65;4.05;;;18.70;99.90;;;;;;5030250;28;20022;-71
2021/05/18 10:59:40;;;;;;;24.08;5.13;;;18.70;99.90;;;;;;5031883;28;20022;-72
2021/05/18 11:02:30;;;;;;;11.88;3.95;;;18.70;99.90;;;;;;5029559;28;20033;-71
2021/05/18 11:05:15;;;;;;;16.00;5.25;;;18.70;99.90;;;;;;5013589;28;20029;-72
2021/05/18 11:07:43;;;;;;;13.60;3.50;;;18.80;99.90;;;;;;5016739;28;20029;-72
2021/05/18 11:10:16;;;;;;;24.15;6.68;;;18.90;99.90;;;;;;5035032;28;20026;-76
2021/05/18 11:12:46;;;;;;;19.00;3.92;;;19.10;99.90;;;;;;5034062;28;20034;-72
2021/05/18 11:15:16;;;;;;;10.70;3.72;;;19.30;99.90;;;;;;5003078;28;20026;-73
2021/05/18 11:17:46;;;;;;;17.33;3.65;;;19.30;99.90;;;;;;5014833;28;20053;-72
2021/05/18 11:21:07;;;;;;;13.60;4.03;;;19.40;99.90;;;;;;5030590;28;20017;-73
2021/05/18 11:25:55;;;;;;;15.73;4.85;;;19.30;99.90;;;;;;5034038;28;20047;-73
2021/05/18 11:28:24;;;;;;;10.73;3.33;;;19.40;99.90;;;;;;5033898;28;20025;-72
2021/05/18 11:30:55;;;;;;;15.85;3.80;;;19.20;99.90;;;;;;5033745;28;20446;-73
2021/05/18 11:33:34;;;;;;;13.90;4.20;;;19.20;99.90;;;;;;4996530;28;20026;-73
2021/05/18 11:36:04;;;;;;;9.65;3.13;;;19.10;99.90;;;;;;5030436;28;20120;-73
2021/05/18 11:38:30;;;;;;;11.00;3.10;;;19.00;99.90;;;;;;5033826;28;20527;-73
2021/05/18 11:40:57;;;;;;;14.75;4.05;;;19.10;99.90;;;;;;5033529;28;20118;-73
2021/05/18 11:43:25;;;;;;;15.10;4.13;;;19.20;99.90;;;;;;5033755;28;20033;-72
2021/05/18 11:46:10;;;;;;;18.77;4.93;;;19.20;99.90;;;;;;5013958;28;20133;-73
2021/05/18 11:48:43;;;;;;;18.95;4.85;;;19.10;99.90;;;;;;5035020;28;20034;-71
2021/05/18 11:51:13;;;;;;;13.60;3.97;;;19.00;99.90;;;;;;5033842;28;20026;-72
2021/05/18 11:53:39;;;;;;;15.38;4.18;;;19.00;99.90;;;;;;5034605;28;20026;-73
2021/05/18 11:56:27;;;;;;;10.35;3.83;;;19.10;99.90;;;;;;5015543;28;20396;-72
2021/05/18 11:59:10;;;;;;;15.80;3.88;;;19.30;99.90;;;;;;5036314;28;20060;-72
2021/05/18 12:01:47;;;;;;;14.25;3.78;;;19.30;99.90;;;;;;5034385;28;20030;-72
2021/05/18 12:04:15;;;;;;;10.50;3.60;;;19.30;99.90;;;;;;5034133;28;20348;-72
2021/05/18 12:06:55;;;;;;;12.65;3.25;;;19.30;99.90;;;;;;5015182;28;20033;-72
2021/05/18 12:09:20;;;;;;;13.00;4.20;;;19.20;99.90;;;;;;4995814;28;20076;-71
2021/05/18 12:12:03;;;;;;;14.45;4.57;;;19.20;99.90;;;;;;4995695;28;20049;-72
2021/05/18 12:14:29;;;;;;;17.63;4.30;;;19.20;99.90;;;;;;4997477;28;20029;-72
2021/05/18 12:16:56;;;;;;;13.20;3.83;;;19.30;99.90;;;;;;5011507;28;20113;-73
2021/05/18 12:19:22;;;;;;;14.95;3.83;;;19.40;99.90;;;;;;5021330;28;20484;-73
2021/05/18 12:21:54;;;;;;;25.02;4.60;;;19.30;99.90;;;;;;5028070;28;20022;-72
2021/05/18 12:24:21;;;;;;;14.17;3.33;;;19.10;99.90;;;;;;5016144;28;20083;-72
2021/05/18 12:27:00;;;;;;;14.38;3.97;;;19.20;99.90;;;;;;5015215;28;20040;-72
2021/05/18 12:29:43;;;;;;;15.23;4.28;;;19.30;99.90;;;;;;5033226;28;20033;-74
2021/05/18 12:32:12;;;;;;;17.80;4.45;;;19.30;99.90;;;;;;5033162;28;20025;-72
2021/05/18 12:34:39;;;;;;;10.75;3.47;;;19.20;99.90;;;;;;5033203;28;20028;-72
2021/05/18 12:37:05;;;;;;;16.45;3.42;;;19.20;99.90;;;;;;5033070;28;20056;-72
2021/05/18 12:39:32;;;;;;;15.05;4.32;;;19.40;99.90;;;;;;5015245;28;20638;-72
2021/05/18 12:42:04;;;;;;;22.20;4.63;;;19.60;99.90;;;;;;5032391;28;20029;-71
2021/05/18 12:44:47;;;;;;;17.73;4.78;;;19.50;99.90;;;;;;5021978;28;20026;-72
2021/05/18 12:47:14;;;;;;;15.40;4.38;;;19.60;99.90;;;;;;5010634;28;20034;-72
2021/05/18 12:49:40;;;;;;;12.13;4.05;;;19.40;99.90;;;;;;5033306;28;20412;-74
2021/05/18 12:52:12;;;;;;;20.00;4.15;;;19.30;99.90;;;;;;5032418;28;20087;-73
2021/05/18 12:54:44;;;;;;;;;;;19.40;99.90;;;;;;5020729;28;20029;-73
2021/05/18 12:57:14;;;;;;;12.00;3.92;;;19.60;99.90;;;;;;5011573;28;19909;-73
2021/05/18 13:00:13;;;;;;;13.20;4.20;;;19.80;99.90;;;;;;5003708;28;20034;-72
2021/05/18 13:02:40;;;;;;;21.65;4.68;;;19.90;99.90;;;;;;5000085;28;20029;-71
2021/05/18 13:05:10;;;;;;;14.27;4.07;;;19.90;99.90;;;;;;5030049;28;20034;-72
2021/05/18 13:07:37;;;;;;;19.75;5.18;;;20.00;99.90;;;;;;5017427;28;20033;-75
2021/05/18 13:10:07;;;;;;;17.95;4.55;;;19.90;99.90;;;;;;5022555;28;20045;-72
2021/05/18 13:12:33;;;;;;;14.70;3.55;;;19.90;99.90;;;;;;5031399;28;20108;-72
2021/05/18 13:14:59;;;;;;;11.98;3.78;;;20.00;99.90;;;;;;5029851;28;20036;-73
2021/05/18 13:17:27;;;;;;;14.93;3.40;;;20.10;99.90;;;;;;5014770;28;20395;-74
2021/05/18 13:20:07;;;;;;;14.82;4.47;;;20.10;99.90;;;;;;5026916;28;20018;-72
2021/05/18 13:22:35;;;;;;;16.88;3.30;;;20.10;99.90;;;;;;5034467;28;20136;-72
2021/05/18 13:27:57;;;;;;;22.85;4.30;;;20.20;99.90;;;;;;5030386;28;20021;-74
2021/05/18 13:30:26;;;;;;;11.18;3.33;;;20.20;99.90;;;;;;5018088;28;20125;-73
2021/05/18 13:32:53;;;;;;;15.43;4.70;;;20.20;99.90;;;;;;5028258;28;20025;-72
2021/05/18 13:35:20;;;;;;;18.75;4.40;;;20.30;99.90;;;;;;5012408;28;20045;-73
2021/05/18 13:37:47;;;;;;;21.33;4.95;;;20.40;99.90;;;;;;5013494;28;20034;-74
2021/05/18 13:40:14;;;;;;;18.73;4.38;;;20.40;99.90;;;;;;5019836;28;20045;-71
2021/05/18 13:42:40;;;;;;;26.23;4.50;;;20.50;99.90;;;;;;5008083;28;20072;-74
2021/05/18 13:45:07;;;;;;;10.93;3.60;;;20.50;99.90;;;;;;5027766;28;20026;-73
2021/05/18 13:47:33;;;;;;;14.48;5.38;;;20.70;99.90;;;;;;5000147;28;20063;-74
2021/05/18 13:50:06;;;;;;;15.32;4.28;;;20.40;99.90;;;;;;5108855;27;20373;-73
2021/05/18 13:52:32;;;;;;;16.98;5.55;;;20.30;99.90;;;;;;5086130;28;20028;-71
2021/05/18 13:54:57;;;;;;;23.33;4.88;;;20.20;99.90;;;;;;5106256;28;20035;-73
2021/05/18 13:57:23;;;;;;;32.00;6.38;;;20.10;99.90;;;;;;5073325;28;20020;-73
2021/05/18 13:59:50;;;;;;;16.83;4.13;;;20.00;99.90;;;;;;5069682;28;20020;-73
2021/05/18 14:02:17;;;;;;;13.98;4.72;;;20.00;99.90;;;;;;5087636;28;20035;-73
2021/05/18 14:04:43;;;;;;;15.88;4.90;;;20.00;99.90;;;;;;5069986;28;20023;-73
2021/05/18 14:10:11;;;;;;;19.38;5.53;;;20.30;99.90;;;;;;5088337;28;20505;-71
2021/05/18 14:12:37;;;;;;;23.02;6.22;;;20.00;99.90;;;;;;5087251;28;20021;-76
2021/05/18 14:15:04;;;;;;;19.70;6.00;;;20.10;99.90;;;;;;5069307;28;20517;-72
2021/05/18 14:17:30;;;;;;;25.70;5.95;;;20.00;99.90;;;;;;5069196;28;20024;-75
2021/05/18 14:19:56;;;;;;;15.57;5.88;;;20.10;99.90;;;;;;5069438;28;20062;-72
2021/05/18 14:22:21;;;;;;;13.63;5.03;;;20.00;99.90;;;;;;5061113;28;20036;-72
2021/05/18 14:25:09;;;;;;;18.15;5.57;;;20.00;99.90;;;;;;5069543;28;20039;-75
2021/05/18 14:27:39;;;;;;;23.15;5.40;;;20.10;99.90;;;;;;5087189;28;20170;-73
2021/05/18 14:30:08;;;;;;;19.53;5.73;;;20.20;99.90;;;;;;5069568;28;20024;-74
2021/05/18 14:32:36;;;;;;;19.20;6.53;;;20.30;99.90;;;;;;5068477;28;20270;-74
2021/05/18 14:35:04;;;;;;;18.23;6.20;;;20.10;99.90;;;;;;5050802;28;20394;-72
2021/05/18 14:37:30;;;;;;;16.20;4.50;;;19.90;99.90;;;;;;5087023;28;20025;-72
2021/05/18 14:45:09;;;;;;;14.40;6.03;;;19.70;99.90;;;;;;5087565;28;20046;-75
2021/05/18 14:55:49;;;;;;;15.45;5.95;;;19.40;99.90;;;;;;5087036;28;20027;-73
2021/05/18 14:58:16;;;;;;;17.35;6.05;;;19.50;99.90;;;;;;5086616;28;20482;-72
2021/05/18 15:00:42;;;;;;;15.15;6.80;;;19.40;99.90;;;;;;5057676;28;20394;-73
2021/05/18 15:03:09;;;;;;;17.80;6.85;;;19.40;99.90;;;;;;5072221;28;20460;-72
2021/05/18 15:05:35;;;;;;;16.05;6.45;;;19.20;99.90;;;;;;5055207;28;20380;-72
2021/05/18 15:08:00;;;;;;;20.50;6.68;;;19.30;99.90;;;;;;5055021;28;20035;-73
2021/05/18 15:10:28;;;;;;;12.60;6.65;;;19.40;99.90;;;;;;5054878;28;20409;-73
2021/05/18 15:12:54;;;;;;;21.13;6.63;;;19.20;99.90;;;;;;5073371;28;20024;-73
2021/05/18 15:15:20;;;;;;;18.27;6.53;;;19.00;99.90;;;;;;5088884;28;20028;-72
2021/05/18 15:17:47;;;;;;;15.93;6.72;;;19.10;99.90;;;;;;5055692;28;20025;-73
2021/05/18 15:20:13;;;;;;;23.70;7.28;;;19.30;99.90;;;;;;5054785;28;20505;-73
2021/05/18 15:22:39;;;;;;;22.50;7.00;;;19.30;99.90;;;;;;5054692;28;20029;-73
2021/05/18 15:25:07;;;;;;;18.52;7.18;;;19.10;99.90;;;;;;5055192;28;20375;-73
2021/05/18 15:27:33;;;;;;;14.73;6.82;;;19.20;99.90;;;;;;5072694;28;20112;-73
2021/05/18 15:29:59;;;;;;;26.88;7.90;;;19.30;99.90;;;;;;5072102;28;20027;-74
2021/05/18 15:32:25;;;;;;;16.02;8.00;;;19.30;99.90;;;;;;5054338;28;20413;-74
2021/05/18 15:34:51;;;;;;;13.38;6.53;;;19.30;99.90;;;;;;5054645;28;20471;-72
2021/05/18 15:37:17;;;;;;;15.82;5.45;;;19.50;99.90;;;;;;5072426;28;20036;-73
2021/05/18 15:39:43;;;;;;;19.65;7.93;;;19.60;99.90;;;;;;5054516;28;20394;-73
2021/05/18 15:42:10;;;;;;;17.67;6.07;;;19.60;99.90;;;;;;5072396;28;20103;-74
2021/05/18 15:44:36;;;;;;;17.88;5.38;;;19.50;99.90;;;;;;5073008;28;20699;-72
2021/05/18 15:47:03;;;;;;;16.90;5.70;;;19.40;99.90;;;;;;5089528;28;20037;-71
2021/05/18 15:49:30;;;;;;;17.02;5.85;;;19.60;99.90;;;;;;5073326;28;20498;-73
2021/05/18 15:51:57;;;;;;;10.63;5.80;;;19.50;99.90;;;;;;5055713;28;20402;-72
2021/05/18 15:54:24;;;;;;;17.35;7.72;;;19.50;99.90;;;;;;5055345;28;20656;-72
2021/05/18 15:56:50;;;;;;;17.73;6.30;;;19.60;99.90;;;;;;5073026;28;20043;-72
2021/05/18 15:59:16;;;;;;;15.60;5.78;;;19.60;99.90;;;;;;5049870;28;20025;-71
2021/05/18 16:01:42;;;;;;;12.98;7.30;;;19.80;99.90;;;;;;5040745;28;20103;-73
2021/05/18 16:04:10;;;;;;;21.77;7.25;;;19.90;99.90;;;;;;5071906;28;20119;-71
2021/05/18 16:06:41;;;;;;;15.93;6.05;;;20.00;99.90;;;;;;5080192;28;20112;-72
2021/05/18 16:09:09;;;;;;;16.30;5.50;;;20.10;99.90;;;;;;5078529;28;20377;-73
2021/05/18 16:11:36;;;;;;;14.95;4.80;;;20.10;99.90;;;;;;5053442;28;20060;-71
2021/05/18 16:14:01;;;;;;;21.60;6.18;;;20.20;99.90;;;;;;5072259;28;20021;-72
2021/05/18 16:16:28;;;;;;;21.75;7.22;;;19.90;99.90;;;;;;5053446;28;20024;-72
2021/05/18 16:18:54;;;;;;;18.95;5.25;;;19.90;99.90;;;;;;5072179;28;20024;-72
2021/05/18 16:21:22;;;;;;;16.20;6.40;;;20.00;99.90;;;;;;5072290;28;20063;-72
2021/05/18 16:23:51;;;;;;;18.33;5.10;;;20.10;99.90;;;;;;5072461;28;20021;-74
2021/05/18 16:26:19;;;;;;;20.30;6.65;;;20.40;99.90;;;;;;5072086;28;20024;-74
2021/05/18 16:28:45;;;;;;;17.02;5.22;;;20.20;99.90;;;;;;5045079;28;20040;-72
2021/05/18 16:31:12;;;;;;;16.15;5.90;;;19.90;99.90;;;;;;5034151;28;20025;-72
2021/05/18 16:33:40;;;;;;;17.63;4.43;;;19.70;99.90;;;;;;5052064;28;20047;-72
2021/05/18 16:36:07;;;;;;;26.20;5.55;;;19.90;99.90;;;;;;5062873;28;20035;-72
2021/05/18 16:38:33;;;;;;;15.75;5.93;;;19.90;99.90;;;;;;5071989;28;20399;-72
2021/05/18 16:40:59;;;;;;;15.82;5.57;;;20.00;99.90;;;;;;5071524;28;20024;-74
2021/05/18 16:43:27;;;;;;;18.65;5.22;;;20.10;99.90;;;;;;5071306;28;20039;-73
2021/05/18 16:45:54;;;;;;;19.83;5.80;;;20.10;99.90;;;;;;5053429;28;20604;-71
2021/05/18 16:48:27;;;;;;;14.73;5.78;;;20.30;99.90;;;;;;5053415;28;20444;-72
2021/05/18 16:50:57;;;;;;;17.65;4.95;;;20.70;99.90;;;;;;5071447;28;20021;-73
2021/05/18 16:53:23;;;;;;;14.50;5.07;;;21.00;99.90;;;;;;5071581;28;20049;-73
2021/05/18 16:55:49;;;;;;;18.50;6.10;;;21.10;99.90;;;;;;5053051;28;20048;-73
2021/05/18 16:58:15;;;;;;;14.13;5.57;;;21.50;99.90;;;;;;5071021;28;20447;-71
2021/05/18 17:00:42;;;;;;;20.92;6.07;;;21.30;99.90;;;;;;5052075;28;20790;-71
2021/05/18 17:03:07;;;;;;;20.65;6.60;;;20.90;99.90;;;;;;5079986;28;20389;-74
2021/05/18 17:05:33;;;;;;;19.17;5.10;;;20.50;99.90;;;;;;5073493;28;20028;-73
2021/05/18 17:08:03;;;;;;;19.45;4.80;;;20.20;99.90;;;;;;5073432;28;20028;-73
2021/05/18 17:10:34;;;;;;;20.75;5.38;;;19.80;99.90;;;;;;5055359;28;20077;-72
2021/05/18 17:13:00;;;;;;;15.07;4.22;;;19.70;99.90;;;;;;5053343;28;20099;-74
2021/05/18 17:15:28;;;;;;;12.75;4.10;;;19.50;99.90;;;;;;5071013;28;20016;-74
2021/05/18 17:17:54;;;;;;;14.70;4.85;;;19.40;99.90;;;;;;5053489;28;20028;-75
2021/05/18 17:20:21;;;;;;;18.80;5.70;;;19.20;99.90;;;;;;5053297;28;20036;-74
2021/05/18 17:22:47;;;;;;;24.00;5.13;;;19.10;99.90;;;;;;5053292;28;20016;-75
2021/05/18 17:25:14;;;;;;;21.13;5.38;;;18.90;99.90;;;;;;5071673;28;20032;-76
2021/05/18 17:27:40;;;;;;;21.52;4.82;;;18.70;99.90;;;;;;5053418;28;20036;-74
2021/05/18 17:30:09;;;;;;;17.08;4.72;;;18.70;99.90;;;;;;5070900;28;20032;-76
2021/05/18 17:32:39;;;;;;;18.80;4.85;;;18.70;99.90;;;;;;5071254;28;20028;-75
2021/05/18 17:35:07;;;;;;;11.20;3.40;;;18.60;99.90;;;;;;5043317;28;20035;-74
2021/05/18 17:37:33;;;;;;;16.85;4.18;;;18.60;99.90;;;;;;5054005;28;20028;-73
2021/05/18 17:39:59;;;;;;;11.88;5.30;;;18.60;99.90;;;;;;5073369;28;20124;-73
2021/05/18 17:42:25;;;;;;;13.48;3.55;;;18.50;99.90;;;;;;5073616;28;20047;-74
2021/05/18 17:44:56;;;;;;;14.52;5.18;;;18.50;99.90;;;;;;5053676;28;20032;-76
2021/05/18 17:47:22;;;;;;;12.75;5.05;;;18.40;99.90;;;;;;5071062;28;20059;-74
2021/05/18 17:49:48;;;;;;;13.55;4.95;;;18.40;99.90;;;;;;5070982;28;20067;-74
2021/05/18 17:52:14;;;;;;;17.20;5.63;;;18.40;99.90;;;;;;5069260;28;20021;-74
2021/05/18 17:54:40;;;;;;;20.90;6.18;;;18.50;99.90;;;;;;5070911;28;20095;-73
2021/05/18 17:57:07;;;;;;;16.02;4.93;;;18.30;99.90;;;;;;5070468;28;20463;-72
2021/05/18 17:59:33;;;;;;;28.25;5.28;;;18.20;99.90;;;;;;5070425;28;20028;-71
2021/05/18 18:02:05;;;;;;;12.95;4.93;;;18.10;99.90;;;;;;5052396;28;20400;-72
2021/05/18 18:04:32;;;;;;;17.00;5.40;;;18.20;99.90;;;;;;5070543;28;20020;-73
2021/05/18 18:06:57;;;;;;;13.45;5.63;;;18.20;99.90;;;;;;5052476;28;20028;-72